createdAt,value
2018-05-31T19:06:38.535Z,57.20
2018-05-31T19:09:07.570Z,57.70
2018-05-31T19:11:44.146Z,57.40
2018-05-31T19:14:12.646Z,57.80
2018-05-31T19:16:41.333Z,58.00
2018-05-31T19:19:15.402Z,58.60
2018-05-31T19:21:44.465Z,59.60
2018-05-31T19:24:18.803Z,59.60
2018-05-31T19:26:50.369Z,60.00
2018-05-31T19:29:19.278Z,60.00
2018-05-31T19:31:47.601Z,59.80
2018-05-31T19:34:16.583Z,59.80
2018-05-31T19:36:50.479Z,60.50
2018-05-31T19:39:19.589Z,61.80
2018-05-31T19:41:47.876Z,62.20
2018-05-31T19:44:21.852Z,62.50
2018-05-31T19:46:50.167Z,62.30
2018-05-31T19:49:19.029Z,62.80
2018-05-31T19:51:54.756Z,63.30
2018-05-31T19:54:23.196Z,63.30
2018-05-31T19:56:51.784Z,63.70
2018-05-31T19:59:25.955Z,64.00
2018-05-31T20:01:59.906Z,63.70
2018-05-31T20:04:28.224Z,63.80
2018-05-31T20:06:56.714Z,64.70
2018-05-31T20:09:25.007Z,64.90
2018-05-31T20:11:53.922Z,65.20
2018-05-31T20:14:22.250Z,65.40
2018-05-31T20:16:51.371Z,65.50
2018-05-31T20:19:19.696Z,65.40
2018-05-31T20:21:48.018Z,65.60
2018-05-31T20:24:16.343Z,65.30
2018-05-31T20:26:46.726Z,65.40
2018-05-31T20:29:17.174Z,65.80
2018-05-31T20:31:46.515Z,66.20
2018-05-31T20:34:16.302Z,66.80
2018-05-31T20:36:45.095Z,68.90
2018-05-31T20:39:13.986Z,67.50
2018-05-31T20:41:42.371Z,67.70
2018-05-31T20:44:11.473Z,67.70
2018-05-31T20:46:40.643Z,68.20
2018-05-31T20:49:09.900Z,69.20
2018-05-31T20:51:39.779Z,70.00
2018-05-31T20:54:09.066Z,69.90
2018-05-31T20:56:37.366Z,69.60
2018-05-31T20:59:06.526Z,70.30
2018-05-31T21:01:37.331Z,70.50
2018-05-31T21:04:05.676Z,70.50
2018-05-31T21:06:34.521Z,70.30
2018-05-31T21:09:04.893Z,70.90
2018-05-31T21:11:33.239Z,70.80
2018-05-31T21:14:01.984Z,71.10
2018-05-31T21:16:30.756Z,71.20
2018-05-31T21:19:00.218Z,71.00
2018-05-31T21:21:28.505Z,71.40
2018-05-31T21:23:57.381Z,71.80
2018-05-31T21:26:25.927Z,71.50
2018-05-31T21:28:54.985Z,71.80
2018-05-31T21:31:24.081Z,71.50
2018-05-31T21:33:52.952Z,72.10
2018-05-31T21:36:21.363Z,71.70
2018-05-31T21:38:49.669Z,71.90
2018-05-31T21:41:18.730Z,72.00
2018-05-31T21:43:47.033Z,72.00
2018-05-31T21:46:15.357Z,72.30
2018-05-31T21:48:45.762Z,72.50
2018-05-31T21:51:14.086Z,72.40
2018-05-31T21:53:43.154Z,72.60
2018-05-31T21:56:11.462Z,72.60
2018-05-31T21:58:40.212Z,72.50
2018-05-31T22:01:08.568Z,72.90
2018-05-31T22:03:36.870Z,73.10
2018-05-31T22:06:05.210Z,72.70
2018-05-31T22:08:33.535Z,72.60
2018-05-31T22:11:03.014Z,72.90
2018-05-31T22:13:33.103Z,73.00
2018-05-31T22:16:02.026Z,72.90
2018-05-31T22:18:31.318Z,72.70
2018-05-31T22:21:00.440Z,72.50
2018-05-31T22:23:29.500Z,72.40
2018-05-31T22:25:59.771Z,73.10
2018-05-31T22:28:28.154Z,72.90
2018-05-31T22:30:56.647Z,72.60
2018-05-31T22:33:24.968Z,72.80
2018-05-31T22:35:54.026Z,73.10
2018-05-31T22:38:22.345Z,72.60
2018-05-31T22:40:51.417Z,73.70
2018-05-31T22:43:19.705Z,73.10
2018-05-31T22:45:48.018Z,73.10
2018-05-31T22:48:16.423Z,73.50
2018-05-31T22:50:44.760Z,73.60
2018-05-31T22:53:13.936Z,73.20
2018-05-31T22:55:42.240Z,73.20
2018-05-31T22:58:11.303Z,73.40
2018-05-31T23:00:39.738Z,73.30
2018-05-31T23:03:08.038Z,73.70
2018-05-31T23:05:36.359Z,74.00
2018-05-31T23:08:05.446Z,74.60
2018-05-31T23:10:33.769Z,74.60
2018-05-31T23:13:02.157Z,74.90
2018-05-31T23:15:30.474Z,74.50
2018-05-31T23:17:58.762Z,74.60
2018-05-31T23:20:27.061Z,75.00
2018-05-31T23:22:55.382Z,75.00
2018-05-31T23:25:23.664Z,75.10
2018-05-31T23:27:51.959Z,75.30
2018-05-31T23:30:20.399Z,75.40
2018-05-31T23:32:48.700Z,75.60
2018-05-31T23:35:17.003Z,76.20
2018-05-31T23:37:45.306Z,76.30
2018-05-31T23:40:14.374Z,76.80
2018-05-31T23:42:42.671Z,76.80
2018-05-31T23:45:11.738Z,77.30
2018-05-31T23:47:40.096Z,76.80
2018-05-31T23:50:08.428Z,76.60
2018-05-31T23:52:37.490Z,77.00
2018-05-31T23:55:05.854Z,77.00
2018-05-31T23:57:34.144Z,77.10
